Time;durP1;ratioP1;P1;durP2;ratioP2;P2;SDS_P1;SDS_P2;PMS_P1;PMS_P2;Temp;Humidity;BMP_temperature;BMP_pressure;BME280_temperature;BME280_humidity;BME280_pressure;Samples;Min_cycle;Max_cycle;Signal;HPM_P1;HPM_P2
2023/06/22 00:02:22;;;;;;;10.07;7.45;;;;;;;;;;4911821;28;20139;-81
2023/06/22 00:04:47;;;;;;;11.07;8.05;;;;;;;;;;4926299;28;20034;-81
2023/06/22 00:07:15;;;;;;;9.50;7.45;;;;;;;;;;4916210;28;20048;-81
2023/06/22 00:09:41;;;;;;;9.23;7.60;;;;;;;;;;4914952;28;20094;-82
2023/06/22 00:12:09;;;;;;;9.07;7.28;;;;;;;;;;4919035;29;20444;-81
2023/06/22 00:14:35;;;;;;;9.45;7.50;;;;;;;;;;4908952;28;20034;-82
2023/06/22 00:17:20;;;;;;;9.40;6.95;;;;;;;;;;4916450;29;20091;-82
2023/06/22 00:19:53;;;;;;;8.90;6.80;;;;;;;;;;4889120;29;20116;-81
2023/06/22 00:22:21;;;;;;;8.60;6.95;;;;;;;;;;4867301;29;20048;-81
2023/06/22 00:24:46;;;;;;;9.80;6.68;;;;;;;;;;4871725;29;20482;-81
2023/06/22 00:27:12;;;;;;;8.23;6.03;;;;;;;;;;4863990;29;20040;-81
2023/06/22 00:29:38;;;;;;;8.73;6.25;;;;;;;;;;4887053;29;21018;-82
2023/06/22 00:32:24;;;;;;;7.18;6.15;;;;;;;;;;4863616;29;20036;-82
2023/06/22 00:34:50;;;;;;;8.57;6.18;;;;;;;;;;4809891;29;20057;-82
2023/06/22 00:37:16;;;;;;;8.80;6.40;;;;;;;;;;4805843;29;20573;-82
2023/06/22 00:39:43;;;;;;;7.97;6.18;;;;;;;;;;4788469;29;20042;-81
2023/06/22 00:42:08;;;;;;;7.93;6.03;;;;;;;;;;4804739;29;20456;-81
2023/06/22 00:44:34;;;;;;;8.25;6.20;;;;;;;;;;4768693;29;20039;-82
2023/06/22 00:47:02;;;;;;;8.95;6.45;;;;;;;;;;4785855;29;20050;-82
2023/06/22 00:49:46;;;;;;;8.13;6.00;;;;;;;;;;4807047;29;20038;-81
2023/06/22 00:52:13;;;;;;;6.63;5.50;;;;;;;;;;4804709;29;20053;-81
2023/06/22 00:54:45;;;;;;;8.32;6.55;;;;;;;;;;4776821;29;20083;-82
2023/06/22 00:57:12;;;;;;;8.60;6.53;;;;;;;;;;4828553;29;20109;-81
2023/06/22 00:59:39;;;;;;;8.07;6.25;;;;;;;;;;4855266;29;20397;-82
2023/06/22 01:02:04;;;;;;;7.83;5.97;;;;;;;;;;4867389;29;20044;-81
2023/06/22 01:04:37;;;;;;;7.70;6.13;;;;;;;;;;4856969;29;20691;-81
2023/06/22 01:07:22;;;;;;;7.40;5.47;;;;;;;;;;4858826;29;20069;-81
2023/06/22 01:09:59;;;;;;;7.93;6.53;;;;;;;;;;4869789;29;20051;-81
2023/06/22 01:12:26;;;;;;;8.90;6.55;;;;;;;;;;4900448;28;20031;-81
2023/06/22 01:15:10;;;;;;;7.95;6.32;;;;;;;;;;4902945;28;20043;-82
2023/06/22 01:17:37;;;;;;;7.97;6.28;;;;;;;;;;4901107;29;20035;-81
2023/06/22 01:20:06;;;;;;;7.65;6.03;;;;;;;;;;4917404;28;20119;-81
2023/06/22 01:22:33;;;;;;;7.45;5.97;;;;;;;;;;4913734;28;20553;-82
2023/06/22 01:25:12;;;;;;;8.70;6.27;;;;;;;;;;4934850;28;20065;-81
2023/06/22 01:27:53;;;;;;;8.20;6.40;;;;;;;;;;4915683;29;20032;-81
2023/06/22 01:30:19;;;;;;;8.32;6.30;;;;;;;;;;4919054;28;20119;-81
2023/06/22 01:32:50;;;;;;;10.50;6.47;;;;;;;;;;4919089;28;20456;-81
2023/06/22 01:35:16;;;;;;;8.85;6.43;;;;;;;;;;4911533;28;20480;-81
2023/06/22 01:37:42;;;;;;;7.68;6.10;;;;;;;;;;4913707;28;20104;-82
2023/06/22 01:40:11;;;;;;;9.02;6.28;;;;;;;;;;4905255;29;20051;-81
2023/06/22 01:42:37;;;;;;;10.40;6.25;;;;;;;;;;4908204;28;20040;-81
2023/06/22 01:45:03;;;;;;;8.82;6.70;;;;;;;;;;4908381;28;20027;-81
2023/06/22 01:47:29;;;;;;;8.07;6.13;;;;;;;;;;4931092;28;20035;-81
2023/06/22 01:49:54;;;;;;;8.45;6.55;;;;;;;;;;4924534;28;20036;-82
2023/06/22 01:52:21;;;;;;;8.88;6.60;;;;;;;;;;4914531;28;20047;-82
2023/06/22 01:54:47;;;;;;;8.38;7.20;;;;;;;;;;4917581;28;20036;-81
2023/06/22 01:57:12;;;;;;;8.95;7.03;;;;;;;;;;4908064;28;20031;-82
2023/06/22 01:59:56;;;;;;;8.60;6.60;;;;;;;;;;4921137;29;20035;-81
2023/06/22 02:02:26;;;;;;;10.43;7.80;;;;;;;;;;4930904;28;20043;-82
2023/06/22 02:04:58;;;;;;;9.30;7.63;;;;;;;;;;4912595;28;20136;-81
2023/06/22 02:07:23;;;;;;;10.45;7.97;;;;;;;;;;4922065;28;20506;-81
2023/06/22 02:09:51;;;;;;;9.65;7.45;;;;;;;;;;4915043;28;20048;-81
2023/06/22 02:12:18;;;;;;;12.55;7.85;;;;;;;;;;4916481;28;20483;-81
2023/06/22 02:14:47;;;;;;;9.57;7.72;;;;;;;;;;4932015;28;20054;-81
2023/06/22 02:17:13;;;;;;;9.38;8.00;;;;;;;;;;4927786;28;20118;-81
2023/06/22 02:19:41;;;;;;;9.25;7.07;;;;;;;;;;4917874;28;20040;-81
2023/06/22 02:22:07;;;;;;;10.82;8.18;;;;;;;;;;4911292;29;20040;-81
2023/06/22 02:24:35;;;;;;;10.05;7.65;;;;;;;;;;4915301;28;20080;-81
2023/06/22 02:27:01;;;;;;;9.57;7.18;;;;;;;;;;4914659;28;20047;-81
2023/06/22 02:29:28;;;;;;;9.40;7.10;;;;;;;;;;4902124;28;20042;-81
2023/06/22 02:31:54;;;;;;;10.63;7.72;;;;;;;;;;4919191;28;20067;-81
2023/06/22 02:34:22;;;;;;;11.98;8.15;;;;;;;;;;4932279;28;20770;-82
2023/06/22 02:36:52;;;;;;;10.55;8.05;;;;;;;;;;4920240;28;20036;-81
2023/06/22 02:39:24;;;;;;;14.43;9.10;;;;;;;;;;4919754;28;20063;-82
2023/06/22 02:41:54;;;;;;;10.77;8.82;;;;;;;;;;4929579;28;20047;-81
2023/06/22 02:44:20;;;;;;;12.85;8.40;;;;;;;;;;4910781;28;20456;-81
2023/06/22 02:46:46;;;;;;;10.80;8.10;;;;;;;;;;4928356;28;20039;-81
2023/06/22 02:49:12;;;;;;;12.00;8.77;;;;;;;;;;4909905;28;20046;-81
2023/06/22 02:51:44;;;;;;;12.93;9.30;;;;;;;;;;4908440;29;20043;-81
2023/06/22 02:54:10;;;;;;;11.00;9.13;;;;;;;;;;4908880;29;20096;-81
2023/06/22 02:56:40;;;;;;;11.55;8.48;;;;;;;;;;4930362;28;20496;-81
2023/06/22 02:59:06;;;;;;;12.82;8.57;;;;;;;;;;4909109;29;20119;-81
2023/06/22 03:01:37;;;;;;;12.55;9.27;;;;;;;;;;4912785;28;20437;-81
2023/06/22 03:04:03;;;;;;;10.55;8.68;;;;;;;;;;4904975;28;20044;-82
2023/06/22 03:06:29;;;;;;;11.93;9.75;;;;;;;;;;4914824;28;20171;-81
2023/06/22 03:09:03;;;;;;;12.55;9.55;;;;;;;;;;4935854;28;20566;-81
2023/06/22 03:11:29;;;;;;;10.73;9.15;;;;;;;;;;4921474;28;20043;-81
2023/06/22 03:13:55;;;;;;;13.40;9.07;;;;;;;;;;4935581;28;20039;-82
2023/06/22 03:16:23;;;;;;;14.77;9.52;;;;;;;;;;4901321;28;20036;-82
2023/06/22 03:18:48;;;;;;;11.85;9.32;;;;;;;;;;4917379;28;20198;-81
2023/06/22 03:21:15;;;;;;;13.05;9.73;;;;;;;;;;4920324;29;20040;-82
2023/06/22 03:23:44;;;;;;;11.60;9.63;;;;;;;;;;4916746;28;20035;-81
2023/06/22 03:26:13;;;;;;;12.63;8.93;;;;;;;;;;4918490;29;20039;-82
2023/06/22 03:28:38;;;;;;;11.60;8.98;;;;;;;;;;4934807;28;20023;-82
2023/06/22 03:31:06;;;;;;;11.70;9.15;;;;;;;;;;4917181;28;20510;-82
2023/06/22 03:33:31;;;;;;;;;;;;;;;;;;4905038;28;20039;-82
2023/06/22 03:35:57;;;;;;;11.20;8.27;;;;;;;;;;4936887;28;20448;-82
2023/06/22 03:38:23;;;;;;;12.57;8.60;;;;;;;;;;4916490;28;20484;-81
2023/06/22 03:40:48;;;;;;;10.15;8.27;;;;;;;;;;4933592;28;20036;-81
2023/06/22 03:43:13;;;;;;;11.07;8.45;;;;;;;;;;4907002;28;20043;-82
2023/06/22 03:45:40;;;;;;;10.35;8.52;;;;;;;;;;4920804;29;20040;-81
2023/06/22 03:48:05;;;;;;;10.80;8.43;;;;;;;;;;4919530;29;20039;-82
2023/06/22 03:50:37;;;;;;;10.82;8.18;;;;;;;;;;4924316;28;20554;-82
2023/06/22 03:53:02;;;;;;;9.82;8.13;;;;;;;;;;4914625;28;20070;-81
2023/06/22 03:55:28;;;;;;;10.25;8.50;;;;;;;;;;4931706;28;20063;-82
2023/06/22 03:57:56;;;;;;;10.02;7.82;;;;;;;;;;4932628;28;20043;-81
2023/06/22 04:00:45;;;;;;;10.48;8.43;;;;;;;;;;4906087;28;20049;-82
2023/06/22 04:03:11;;;;;;;11.77;8.20;;;;;;;;;;4903504;28;20071;-81
2023/06/22 04:05:39;;;;;;;10.38;8.10;;;;;;;;;;4909581;28;20071;-81
2023/06/22 04:08:04;;;;;;;11.43;7.43;;;;;;;;;;4910159;28;20043;-82
2023/06/22 04:10:33;;;;;;;11.50;7.53;;;;;;;;;;4901472;28;20082;-81
2023/06/22 04:13:19;;;;;;;9.52;7.35;;;;;;;;;;4900377;28;21004;-81
2023/06/22 04:15:44;;;;;;;9.10;6.78;;;;;;;;;;4892238;29;20036;-82
2023/06/22 04:18:13;;;;;;;10.40;7.20;;;;;;;;;;4877473;29;20793;-81
2023/06/22 04:20:39;;;;;;;9.20;6.90;;;;;;;;;;4856868;29;20044;-82
2023/06/22 04:23:04;;;;;;;9.65;6.82;;;;;;;;;;4860541;29;20051;-82
2023/06/22 04:25:30;;;;;;;11.02;7.03;;;;;;;;;;4876606;29;20041;-82
2023/06/22 04:27:57;;;;;;;9.48;7.88;;;;;;;;;;4865124;29;20047;-82
2023/06/22 04:30:46;;;;;;;10.75;7.88;;;;;;;;;;4853308;29;20678;-82
2023/06/22 04:33:15;;;;;;;11.90;7.90;;;;;;;;;;4832841;29;20111;-82
2023/06/22 04:35:43;;;;;;;11.38;8.15;;;;;;;;;;4842729;29;20042;-83
2023/06/22 04:38:08;;;;;;;10.20;7.97;;;;;;;;;;4842244;29;20101;-82
2023/06/22 04:40:34;;;;;;;9.88;7.90;;;;;;;;;;4839907;29;20045;-81
2023/06/22 04:43:21;;;;;;;10.82;7.95;;;;;;;;;;4832376;29;20049;-82
2023/06/22 04:45:52;;;;;;;;;;;;;;;;;;4827686;29;20069;-82
2023/06/22 04:48:20;;;;;;;9.88;7.68;;;;;;;;;;4826008;29;19998;-82
2023/06/22 04:50:46;;;;;;;10.52;7.15;;;;;;;;;;4831270;29;20143;-82
2023/06/22 04:53:12;;;;;;;8.48;6.90;;;;;;;;;;4856374;29;20147;-82
2023/06/22 04:55:41;;;;;;;8.80;6.70;;;;;;;;;;4867330;29;20033;-82
2023/06/22 04:58:09;;;;;;;8.60;6.90;;;;;;;;;;4878639;29;20036;-82
2023/06/22 05:00:36;;;;;;;8.27;6.70;;;;;;;;;;4866323;29;20111;-81
2023/06/22 05:03:03;;;;;;;8.70;6.43;;;;;;;;;;4872340;29;20056;-81
2023/06/22 05:05:29;;;;;;;10.50;6.93;;;;;;;;;;4878437;29;20045;-81
2023/06/22 05:08:00;;;;;;;9.43;6.90;;;;;;;;;;4849570;29;20068;-82
2023/06/22 05:10:26;;;;;;;9.35;6.68;;;;;;;;;;4909149;28;20125;-83
2023/06/22 05:12:51;;;;;;;9.80;6.25;;;;;;;;;;4930822;28;20133;-85
2023/06/22 05:15:36;;;;;;;10.52;6.65;;;;;;;;;;4920251;28;20055;-87
2023/06/22 05:18:05;;;;;;;7.80;5.85;;;;;;;;;;4896440;29;20081;-86
2023/06/22 05:20:31;;;;;;;6.78;5.13;;;;;;;;;;4879161;28;20534;-85
2023/06/22 05:23:08;;;;;;;9.77;6.18;;;;;;;;;;4889582;28;20043;-85
2023/06/22 05:25:33;;;;;;;7.88;5.70;;;;;;;;;;4914412;28;22328;-85
2023/06/22 05:28:10;;;;;;;7.15;5.70;;;;;;;;;;4913622;28;20043;-85
2023/06/22 05:30:38;;;;;;;7.65;5.18;;;;;;;;;;4922060;28;20046;-85
2023/06/22 05:33:24;;;;;;;9.02;5.22;;;;;;;;;;4901752;29;20039;-86
2023/06/22 05:35:59;;;;;;;6.40;5.13;;;;;;;;;;4884011;29;20048;-86
2023/06/22 05:38:25;;;;;;;9.10;5.60;;;;;;;;;;4869304;29;20040;-85
2023/06/22 05:40:51;;;;;;;7.05;4.90;;;;;;;;;;4871117;29;20068;-85
2023/06/22 05:43:16;;;;;;;6.85;5.10;;;;;;;;;;4858940;29;20113;-85
2023/06/22 05:45:51;;;;;;;7.35;5.43;;;;;;;;;;4864743;29;20558;-86
2023/06/22 05:48:24;;;;;;;7.07;4.93;;;;;;;;;;4849706;29;20378;-86
2023/06/22 05:50:56;;;;;;;6.25;4.78;;;;;;;;;;4843641;29;20526;-85
2023/06/22 05:53:23;;;;;;;7.03;5.30;;;;;;;;;;4859908;29;20123;-85
2023/06/22 05:55:52;;;;;;;6.50;5.20;;;;;;;;;;4882327;29;20041;-87
2023/06/22 05:58:18;;;;;;;7.40;5.65;;;;;;;;;;4868862;29;20040;-85
2023/06/22 06:00:43;;;;;;;8.40;5.72;;;;;;;;;;4857858;29;20033;-86
2023/06/22 06:03:10;;;;;;;8.95;5.10;;;;;;;;;;4854243;29;20084;-85
2023/06/22 06:05:35;;;;;;;9.32;5.68;;;;;;;;;;4867592;29;20037;-86
2023/06/22 06:08:02;;;;;;;8.02;5.35;;;;;;;;;;4858410;29;20477;-80
2023/06/22 06:10:29;;;;;;;7.32;5.43;;;;;;;;;;4870115;29;20144;-78
2023/06/22 06:12:55;;;;;;;7.30;4.73;;;;;;;;;;4892080;28;20623;-79
2023/06/22 06:15:20;;;;;;;6.70;5.10;;;;;;;;;;4896974;28;20382;-79
2023/06/22 06:17:49;;;;;;;7.35;5.03;;;;;;;;;;4915661;28;20035;-80
2023/06/22 06:20:16;;;;;;;8.13;5.30;;;;;;;;;;4923514;28;20065;-79
2023/06/22 06:22:42;;;;;;;6.28;4.40;;;;;;;;;;4905657;29;20039;-79
2023/06/22 06:25:08;;;;;;;8.93;5.10;;;;;;;;;;4906654;29;20443;-80
2023/06/22 06:27:33;;;;;;;6.13;4.60;;;;;;;;;;4915001;28;20035;-80
2023/06/22 06:29:59;;;;;;;8.57;4.22;;;;;;;;;;4906903;28;20040;-80
2023/06/22 06:32:24;;;;;;;6.60;3.92;;;;;;;;;;4929340;28;20093;-79
2023/06/22 06:34:53;;;;;;;6.20;3.90;;;;;;;;;;4918805;28;20046;-80
2023/06/22 06:37:18;;;;;;;6.95;4.13;;;;;;;;;;4928759;28;20370;-79
2023/06/22 06:39:44;;;;;;;4.60;3.08;;;;;;;;;;4918905;28;20035;-80
2023/06/22 06:42:11;;;;;;;5.00;3.17;;;;;;;;;;4916435;29;20436;-79
2023/06/22 06:44:37;;;;;;;5.65;3.65;;;;;;;;;;4914416;28;20197;-81
2023/06/22 06:47:06;;;;;;;5.65;3.60;;;;;;;;;;4935862;28;20110;-79
2023/06/22 06:49:33;;;;;;;6.20;3.20;;;;;;;;;;4932934;28;20058;-79
2023/06/22 06:51:59;;;;;;;4.93;3.25;;;;;;;;;;4921723;28;20508;-81
2023/06/22 06:54:27;;;;;;;5.03;3.40;;;;;;;;;;4910187;28;20043;-80
2023/06/22 06:56:53;;;;;;;5.43;3.28;;;;;;;;;;4915901;28;20475;-81
2023/06/22 06:59:18;;;;;;;5.45;3.38;;;;;;;;;;4915183;28;20036;-80
2023/06/22 07:01:44;;;;;;;4.72;3.20;;;;;;;;;;4915661;28;20423;-80
2023/06/22 07:04:09;;;;;;;5.78;3.15;;;;;;;;;;4904991;29;20047;-80
2023/06/22 07:06:35;;;;;;;6.53;3.10;;;;;;;;;;4935656;28;20039;-80
2023/06/22 07:09:00;;;;;;;5.05;2.95;;;;;;;;;;4934594;28;20606;-79
2023/06/22 07:11:27;;;;;;;5.00;2.80;;;;;;;;;;4917461;28;20043;-80
2023/06/22 07:13:52;;;;;;;4.15;2.60;;;;;;;;;;4921806;28;20066;-81
2023/06/22 07:16:18;;;;;;;4.47;2.25;;;;;;;;;;4915724;28;20094;-80
2023/06/22 07:18:46;;;;;;;4.95;2.13;;;;;;;;;;4918358;28;20035;-82
2023/06/22 07:21:11;;;;;;;3.88;2.20;;;;;;;;;;4906821;29;20118;-82
2023/06/22 07:23:37;;;;;;;3.15;1.77;;;;;;;;;;4917410;29;20461;-82
2023/06/22 07:26:02;;;;;;;4.05;1.90;;;;;;;;;;4914854;28;20050;-81
2023/06/22 07:28:31;;;;;;;4.38;2.03;;;;;;;;;;4933214;28;20040;-82
2023/06/22 07:30:57;;;;;;;4.53;2.13;;;;;;;;;;4916965;28;20106;-81
2023/06/22 07:33:23;;;;;;;4.30;2.17;;;;;;;;;;4910031;29;20130;-81
2023/06/22 07:35:52;;;;;;;5.05;2.60;;;;;;;;;;4914532;28;20111;-82
2023/06/22 07:38:17;;;;;;;3.38;2.00;;;;;;;;;;4916719;28;20044;-81
2023/06/22 07:40:44;;;;;;;4.30;2.10;;;;;;;;;;4910177;29;20051;-82
2023/06/22 07:43:11;;;;;;;3.53;1.90;;;;;;;;;;4910636;29;20042;-81
2023/06/22 07:45:39;;;;;;;3.70;2.00;;;;;;;;;;4915837;28;21023;-81
2023/06/22 07:48:04;;;;;;;3.63;1.90;;;;;;;;;;4921497;28;20435;-82
2023/06/22 07:50:31;;;;;;;3.70;2.08;;;;;;;;;;4918064;28;20119;-81
2023/06/22 07:52:56;;;;;;;3.88;1.90;;;;;;;;;;4932947;28;20063;-82
2023/06/22 07:55:22;;;;;;;3.70;2.00;;;;;;;;;;4918121;28;20032;-81
2023/06/22 07:57:49;;;;;;;3.63;1.85;;;;;;;;;;4902061;28;20099;-81
2023/06/22 08:00:16;;;;;;;4.65;2.00;;;;;;;;;;4911244;28;20039;-82
2023/06/22 08:02:44;;;;;;;4.43;2.20;;;;;;;;;;4916743;28;20035;-82
2023/06/22 08:05:11;;;;;;;3.92;2.30;;;;;;;;;;4921377;29;20052;-81
2023/06/22 08:07:37;;;;;;;5.13;2.15;;;;;;;;;;4908203;28;20750;-82
2023/06/22 08:10:04;;;;;;;3.40;1.90;;;;;;;;;;4936086;28;20042;-82
2023/06/22 08:12:29;;;;;;;3.38;1.67;;;;;;;;;;4885509;28;20036;-81
2023/06/22 08:14:56;;;;;;;5.18;2.10;;;;;;;;;;4920673;28;20443;-81
2023/06/22 08:17:24;;;;;;;5.55;2.00;;;;;;;;;;4915477;28;20135;-82
2023/06/22 08:19:50;;;;;;;3.58;1.88;;;;;;;;;;4910265;28;20040;-82
2023/06/22 08:22:35;;;;;;;4.55;2.00;;;;;;;;;;4906143;29;20091;-81
2023/06/22 08:25:00;;;;;;;3.50;1.88;;;;;;;;;;4928861;28;20189;-82
2023/06/22 08:27:28;;;;;;;4.03;1.70;;;;;;;;;;4899606;28;20150;-81
2023/06/22 08:29:58;;;;;;;4.00;1.75;;;;;;;;;;4921286;28;20044;-83
2023/06/22 08:32:23;;;;;;;4.30;1.70;;;;;;;;;;4932740;28;20040;-82
2023/06/22 08:34:49;;;;;;;3.42;2.00;;;;;;;;;;4915068;28;20035;-82
2023/06/22 08:37:14;;;;;;;3.35;1.80;;;;;;;;;;4930522;28;20032;-82
2023/06/22 08:39:40;;;;;;;4.05;2.00;;;;;;;;;;4915023;29;20562;-82
2023/06/22 08:42:05;;;;;;;3.45;1.88;;;;;;;;;;4916055;28;20050;-81
2023/06/22 08:44:31;;;;;;;3.50;1.83;;;;;;;;;;4916814;28;20035;-82
2023/06/22 08:47:14;;;;;;;3.78;2.03;;;;;;;;;;4912191;28;20159;-82
2023/06/22 08:49:42;;;;;;;3.67;1.60;;;;;;;;;;4923647;28;20167;-82
2023/06/22 08:52:08;;;;;;;4.70;1.60;;;;;;;;;;4917414;29;20062;-83
2023/06/22 08:54:34;;;;;;;2.90;1.55;;;;;;;;;;4915806;28;20052;-81
2023/06/22 08:57:00;;;;;;;3.40;1.63;;;;;;;;;;4906501;28;20082;-83
2023/06/22 08:59:26;;;;;;;3.10;1.60;;;;;;;;;;4931147;28;20637;-83
2023/06/22 09:01:52;;;;;;;3.78;1.80;;;;;;;;;;4896844;28;20046;-83
2023/06/22 09:04:18;;;;;;;4.10;2.00;;;;;;;;;;4926953;29;20126;-82
2023/06/22 09:06:45;;;;;;;3.35;1.90;;;;;;;;;;4932389;28;20548;-82
2023/06/22 09:09:12;;;;;;;4.40;2.25;;;;;;;;;;4920679;28;20036;-82
2023/06/22 09:11:37;;;;;;;3.80;2.10;;;;;;;;;;4929935;29;20043;-82
2023/06/22 09:14:03;;;;;;;3.33;1.85;;;;;;;;;;4920326;28;20058;-82
2023/06/22 09:16:32;;;;;;;4.03;1.92;;;;;;;;;;4909652;28;20047;-82
2023/06/22 09:18:58;;;;;;;3.80;2.00;;;;;;;;;;4910410;28;20555;-81
2023/06/22 09:21:23;;;;;;;4.78;2.10;;;;;;;;;;4893846;28;20047;-82
2023/06/22 09:23:52;;;;;;;4.10;1.80;;;;;;;;;;4909960;28;20043;-83
2023/06/22 09:26:18;;;;;;;4.25;2.10;;;;;;;;;;4929811;28;20036;-81
2023/06/22 09:28:44;;;;;;;4.65;1.98;;;;;;;;;;4903783;28;20047;-82
2023/06/22 09:31:09;;;;;;;3.10;1.60;;;;;;;;;;4901631;29;20033;-82
2023/06/22 09:33:35;;;;;;;3.08;1.80;;;;;;;;;;4909277;28;20086;-82
2023/06/22 09:36:12;;;;;;;5.07;2.00;;;;;;;;;;4915434;28;20054;-82
2023/06/22 09:38:38;;;;;;;3.67;1.83;;;;;;;;;;4919271;29;20062;-82
2023/06/22 09:41:16;;;;;;;3.92;2.10;;;;;;;;;;4932926;28;20036;-82
2023/06/22 09:43:41;;;;;;;4.20;1.90;;;;;;;;;;4913640;29;20036;-82
2023/06/22 09:46:10;;;;;;;4.25;2.10;;;;;;;;;;4906794;29;20039;-83
2023/06/22 09:48:35;;;;;;;3.75;2.33;;;;;;;;;;4893690;28;20035;-82
2023/06/22 09:51:01;;;;;;;3.35;2.05;;;;;;;;;;4914447;28;20103;-82
2023/06/22 09:53:27;;;;;;;3.90;1.98;;;;;;;;;;4910947;28;20039;-82
2023/06/22 09:55:52;;;;;;;4.43;2.20;;;;;;;;;;4907805;28;20043;-83
2023/06/22 09:58:17;;;;;;;3.92;2.20;;;;;;;;;;4902186;28;20040;-82
2023/06/22 10:00:43;;;;;;;4.18;1.95;;;;;;;;;;4933408;28;20696;-83
2023/06/22 10:03:08;;;;;;;3.53;2.00;;;;;;;;;;4913957;28;20053;-82
2023/06/22 10:05:34;;;;;;;3.45;2.00;;;;;;;;;;4918463;28;20383;-82
2023/06/22 10:07:59;;;;;;;3.63;2.30;;;;;;;;;;4916229;28;20403;-82
2023/06/22 10:10:24;;;;;;;4.22;2.10;;;;;;;;;;4913070;28;20036;-83
2023/06/22 10:12:57;;;;;;;3.55;1.80;;;;;;;;;;4919207;28;20054;-83
2023/06/22 10:15:31;;;;;;;3.53;1.92;;;;;;;;;;4893838;28;20091;-82
2023/06/22 10:17:57;;;;;;;3.85;1.98;;;;;;;;;;4911959;28;20368;-82
2023/06/22 10:20:26;;;;;;;3.13;1.88;;;;;;;;;;4901506;28;20090;-82
2023/06/22 10:22:51;;;;;;;3.78;2.25;;;;;;;;;;4910060;28;20039;-85
2023/06/22 10:25:17;;;;;;;4.50;2.05;;;;;;;;;;4914272;28;20051;-82
2023/06/22 10:27:43;;;;;;;3.88;2.08;;;;;;;;;;4908672;28;20041;-82
2023/06/22 10:30:10;;;;;;;3.45;1.98;;;;;;;;;;4929149;29;20040;-82
2023/06/22 10:32:45;;;;;;;3.30;2.10;;;;;;;;;;4901172;28;20044;-82
2023/06/22 10:35:13;;;;;;;3.03;1.90;;;;;;;;;;4903494;29;20043;-83
2023/06/22 10:37:38;;;;;;;3.63;2.00;;;;;;;;;;4937039;28;20043;-81
2023/06/22 10:40:05;;;;;;;3.50;1.95;;;;;;;;;;4917020;28;20034;-82
2023/06/22 10:42:30;;;;;;;3.92;2.13;;;;;;;;;;4913293;28;20036;-83
2023/06/22 10:44:58;;;;;;;3.90;1.70;;;;;;;;;;4914939;28;20094;-80
2023/06/22 10:47:24;;;;;;;3.88;1.90;;;;;;;;;;4919694;28;20043;-83
2023/06/22 10:49:49;;;;;;;3.10;1.80;;;;;;;;;;4905897;29;20043;-82
2023/06/22 10:52:15;;;;;;;3.53;1.90;;;;;;;;;;4914100;28;20036;-82
2023/06/22 10:54:50;;;;;;;2.80;1.60;;;;;;;;;;4915000;29;20049;-82
2023/06/22 10:57:15;;;;;;;4.20;1.80;;;;;;;;;;4910472;28;20050;-82
2023/06/22 10:59:41;;;;;;;4.40;2.00;;;;;;;;;;4933232;28;20953;-82
2023/06/22 11:02:06;;;;;;;3.27;1.60;;;;;;;;;;4919622;28;20047;-83
2023/06/22 11:04:32;;;;;;;3.17;1.90;;;;;;;;;;4913611;28;20036;-82
2023/06/22 11:06:58;;;;;;;3.90;1.80;;;;;;;;;;4900584;28;20059;-82
2023/06/22 11:09:26;;;;;;;5.17;1.80;;;;;;;;;;4912165;28;20031;-83
2023/06/22 11:11:54;;;;;;;4.70;2.35;;;;;;;;;;4914056;28;20396;-87
2023/06/22 11:14:23;;;;;;;3.60;1.80;;;;;;;;;;4901576;28;20510;-84
2023/06/22 11:16:49;;;;;;;2.92;1.60;;;;;;;;;;4915258;28;20043;-83
2023/06/22 11:19:14;;;;;;;2.87;1.70;;;;;;;;;;4909110;28;20043;-84
2023/06/22 11:21:40;;;;;;;3.20;1.75;;;;;;;;;;4928097;28;20377;-85
2023/06/22 11:24:06;;;;;;;4.10;1.80;;;;;;;;;;4931238;28;20043;-85
2023/06/22 11:26:35;;;;;;;3.73;1.80;;;;;;;;;;4914405;28;20402;-86
2023/06/22 11:29:00;;;;;;;3.20;1.60;;;;;;;;;;4926263;28;20051;-83
2023/06/22 11:31:26;;;;;;;2.73;1.63;;;;;;;;;;4921213;28;20562;-82
2023/06/22 11:33:51;;;;;;;3.10;1.80;;;;;;;;;;4912882;28;20412;-82
2023/06/22 11:36:18;;;;;;;2.70;1.50;;;;;;;;;;4902123;28;20461;-83
2023/06/22 11:38:43;;;;;;;;;;;;;;;;;;4919357;28;20516;-83
2023/06/22 11:41:15;;;;;;;;;;;;;;;;;;4910968;29;19919;-83
2023/06/22 11:43:42;;;;;;;5.03;1.70;;;;;;;;;;4934155;28;20317;-83
2023/06/22 11:46:08;;;;;;;3.58;1.83;;;;;;;;;;4915279;28;20039;-83
2023/06/22 11:48:33;;;;;;;2.87;1.90;;;;;;;;;;4910482;28;20089;-83
2023/06/22 11:51:02;;;;;;;3.10;1.60;;;;;;;;;;4941417;28;20036;-83
2023/06/22 11:53:28;;;;;;;2.92;1.50;;;;;;;;;;4934857;28;20058;-82
2023/06/22 11:55:54;;;;;;;3.57;1.67;;;;;;;;;;4915399;29;20059;-82
2023/06/22 11:58:19;;;;;;;3.47;1.77;;;;;;;;;;4918147;28;20040;-82
2023/06/22 12:00:45;;;;;;;3.17;1.97;;;;;;;;;;4930655;28;20519;-81
2023/06/22 12:03:11;;;;;;;5.33;2.20;;;;;;;;;;4910129;29;20063;-81
2023/06/22 12:05:37;;;;;;;3.40;2.10;;;;;;;;;;4934550;28;20119;-81
2023/06/22 12:08:03;;;;;;;3.20;1.90;;;;;;;;;;4905167;28;20040;-82
2023/06/22 12:10:28;;;;;;;3.67;2.28;;;;;;;;;;4932937;28;20038;-82
2023/06/22 12:12:54;;;;;;;4.50;2.40;;;;;;;;;;4906522;28;20059;-81
2023/06/22 12:15:19;;;;;;;4.45;2.17;;;;;;;;;;4918252;28;20031;-83
2023/06/22 12:17:45;;;;;;;3.22;1.98;;;;;;;;;;4934009;28;20042;-81
2023/06/22 12:20:10;;;;;;;3.95;2.35;;;;;;;;;;4913556;29;20039;-82
2023/06/22 12:22:37;;;;;;;3.78;2.05;;;;;;;;;;4933105;28;20039;-82
2023/06/22 12:25:03;;;;;;;3.72;2.10;;;;;;;;;;4915455;28;20094;-82
2023/06/22 12:27:30;;;;;;;4.03;2.10;;;;;;;;;;4935061;28;20039;-82
2023/06/22 12:29:55;;;;;;;;;;;;;;;;;;4919447;28;20425;-81
2023/06/22 12:32:21;;;;;;;4.17;1.90;;;;;;;;;;4919792;28;19997;-81
2023/06/22 12:34:46;;;;;;;3.67;2.33;;;;;;;;;;4908302;28;20044;-81
2023/06/22 12:37:11;;;;;;;4.65;2.42;;;;;;;;;;4917388;29;20834;-82
2023/06/22 12:39:40;;;;;;;3.70;2.50;;;;;;;;;;4933047;28;20376;-80
2023/06/22 12:42:08;;;;;;;3.85;2.40;;;;;;;;;;4922481;28;20050;-81
2023/06/22 12:44:34;;;;;;;4.40;2.38;;;;;;;;;;4905850;28;25199;-81
2023/06/22 12:47:00;;;;;;;4.40;2.40;;;;;;;;;;4908602;28;20047;-83
2023/06/22 12:49:25;;;;;;;4.05;2.60;;;;;;;;;;4934409;28;20039;-82
2023/06/22 12:51:50;;;;;;;5.55;2.40;;;;;;;;;;4932297;28;20036;-82
2023/06/22 12:54:17;;;;;;;6.05;2.83;;;;;;;;;;4917723;29;20043;-81
2023/06/22 12:56:50;;;;;;;4.15;2.67;;;;;;;;;;4918781;29;20479;-80
2023/06/22 12:59:17;;;;;;;4.78;2.30;;;;;;;;;;4910827;28;20042;-81
2023/06/22 13:01:43;;;;;;;3.95;2.40;;;;;;;;;;4914530;29;20035;-81
2023/06/22 13:04:11;;;;;;;4.38;2.78;;;;;;;;;;4915362;29;20464;-82
2023/06/22 13:06:36;;;;;;;;;;;;;;;;;;4907210;29;20042;-82
2023/06/22 13:09:03;;;;;;;4.13;2.60;;;;;;;;;;4918887;28;20370;-82
2023/06/22 13:11:29;;;;;;;;;;;;;;;;;;4917131;28;20508;-81
2023/06/22 13:13:54;;;;;;;4.17;2.70;;;;;;;;;;4931756;28;19915;-81
2023/06/22 13:16:19;;;;;;;4.35;2.80;;;;;;;;;;4911586;28;20035;-81
2023/06/22 13:18:45;;;;;;;4.30;2.88;;;;;;;;;;4909767;28;20608;-81
2023/06/22 13:21:10;;;;;;;4.03;2.67;;;;;;;;;;4914609;29;20036;-82
2023/06/22 13:23:35;;;;;;;4.32;2.70;;;;;;;;;;4916268;28;20044;-81
2023/06/22 13:26:10;;;;;;;4.15;2.50;;;;;;;;;;4907097;28;20039;-80
2023/06/22 13:28:35;;;;;;;4.07;2.30;;;;;;;;;;4929184;28;20511;-81
2023/06/22 13:31:04;;;;;;;4.00;2.33;;;;;;;;;;4933630;28;20032;-81
2023/06/22 13:33:29;;;;;;;4.07;2.40;;;;;;;;;;4919421;28;20502;-82
2023/06/22 13:35:55;;;;;;;3.60;2.20;;;;;;;;;;4933292;28;20039;-82
2023/06/22 13:38:20;;;;;;;3.60;2.17;;;;;;;;;;4900503;28;20394;-81
2023/06/22 13:40:47;;;;;;;3.63;2.30;;;;;;;;;;4929607;28;20070;-82
2023/06/22 13:43:12;;;;;;;;;;;;;;;;;;4917910;29;20039;-82
2023/06/22 13:45:41;;;;;;;4.17;2.40;;;;;;;;;;4915015;29;19919;-82
2023/06/22 13:48:07;;;;;;;3.40;2.30;;;;;;;;;;4921769;28;20080;-82
2023/06/22 13:50:35;;;;;;;3.30;2.00;;;;;;;;;;4917923;28;20547;-82
2023/06/22 13:53:03;;;;;;;3.25;2.20;;;;;;;;;;4893753;29;20051;-84
2023/06/22 13:55:28;;;;;;;4.03;2.17;;;;;;;;;;4902428;28;20040;-83
2023/06/22 13:57:53;;;;;;;3.70;2.40;;;;;;;;;;4914243;29;20044;-82
2023/06/22 14:00:19;;;;;;;3.33;2.37;;;;;;;;;;4900942;28;20043;-83
2023/06/22 14:02:45;;;;;;;4.10;2.50;;;;;;;;;;4908748;28;20051;-83
2023/06/22 14:05:11;;;;;;;3.40;2.50;;;;;;;;;;4916293;28;20362;-83
2023/06/22 14:07:37;;;;;;;3.63;2.50;;;;;;;;;;4915122;28;21213;-83
2023/06/22 14:10:03;;;;;;;4.22;2.78;;;;;;;;;;4914205;28;20559;-83
2023/06/22 14:12:29;;;;;;;4.28;2.55;;;;;;;;;;4914615;28;20047;-83
2023/06/22 14:14:57;;;;;;;6.20;2.38;;;;;;;;;;4915513;28;20102;-83
2023/06/22 14:17:25;;;;;;;5.43;2.75;;;;;;;;;;4918856;28;20044;-83
2023/06/22 14:19:52;;;;;;;5.28;2.63;;;;;;;;;;4909082;28;20142;-82
2023/06/22 14:22:18;;;;;;;4.57;2.90;;;;;;;;;;4916490;28;20027;-82
2023/06/22 14:24:44;;;;;;;4.40;2.90;;;;;;;;;;4906176;29;20046;-83
2023/06/22 14:27:09;;;;;;;4.22;2.63;;;;;;;;;;4906369;29;20043;-83
2023/06/22 14:29:35;;;;;;;4.22;2.90;;;;;;;;;;4912364;28;20698;-82
2023/06/22 14:32:01;;;;;;;3.60;2.60;;;;;;;;;;4919066;28;20122;-82
2023/06/22 14:34:26;;;;;;;4.78;2.97;;;;;;;;;;4911593;29;20543;-83
2023/06/22 14:36:51;;;;;;;4.50;2.75;;;;;;;;;;4917238;28;20051;-83
2023/06/22 14:39:17;;;;;;;5.10;3.10;;;;;;;;;;4924682;28;20067;-83
2023/06/22 14:41:42;;;;;;;4.45;2.67;;;;;;;;;;4912414;29;20042;-84
2023/06/22 14:44:13;;;;;;;5.38;3.03;;;;;;;;;;4914774;28;20115;-84
2023/06/22 14:46:38;;;;;;;4.85;3.10;;;;;;;;;;4930734;28;20377;-84